Flight Track Log - Related Links

Times and Time Zones

All times are in EST time to prevent confusion due to time zone crossing. See the RJE193 flight status page for this flight to view local times or setup timezone preferences in your user account.

Time Position Orientation Groundspeed Altitude Reporting Facility
EST Latitude Longitude Course Direction KTS MPH feet Rate Location/Type
Sun 05:34:10 PM 36.9014 -76.2231 302° West 135 155 500  Level Washington Center
Sun 05:35:48 PM 36.9364 -76.2936 302° West 162 186 4,300 2,427 Climbing Washington Center
Sun 05:36:21 PM 36.9486 -76.3247 296° West 162 186 5,800 3,000 Climbing Washington Center
Sun 05:36:46 PM 36.9528 -76.3483 282° West 161 185 7,200 2,852 Climbing Washington Center
Sun 05:37:22 PM 36.9547 -76.3769 275° West 162 186 8,700 2,037 Climbing Washington Center
Sun 05:38:35 PM 36.9606 -76.4289 278° West 162 186 10,900 2,256 Climbing Washington Center
Sun 05:39:35 PM 36.9683 -76.4886 279° West 157 181 13,700 2,400 Climbing Washington Center
Sun 05:40:35 PM 36.9744 -76.5278 281° West 143 165 15,700 1,780 Climbing Washington Center
Sun 05:41:33 PM 36.9803 -76.5694 280° West 131 151 17,200 1,261 Climbing Washington Center
Sun 05:42:34 PM 36.9861 -76.6164 279° West 131 151 18,200 1,328 Climbing Washington Center
Sun 05:43:35 PM 36.9922 -76.6581 280° West 131 151 19,900 1,587 Climbing Washington Center
Sun 05:44:35 PM 36.9981 -76.7050 279° West 131 151 21,400 1,475 Climbing Washington Center
Sun 05:45:33 PM 37.0058 -76.7544 281° West 131 151 22,800 1,220 Climbing Washington Center
Sun 05:46:33 PM 37.0117 -76.8039 278° West 141 162 23,800 595 Climbing Washington Center
Sun 05:47:34 PM 37.0214 -76.8667 281° West 163 188 24,000 98 Climbing Washington Center
Sun 05:48:35 PM 37.0311 -76.9369 280° West 186 214 24,000  Level Washington Center
Sun 05:49:33 PM 37.0428 -77.0100 281° West 209 241 24,000  Level Washington Center
Sun 05:50:33 PM 37.0522 -77.0856 279° West 215 247 24,000  Level Washington Center
Sun 05:51:34 PM 37.0658 -77.1614 283° West 220 253 24,000  Level Washington Center
Sun 05:52:35 PM 37.0794 -77.2344 283° West 220 253 24,000  Level Washington Center
Sun 05:53:33 PM 37.0908 -77.3103 281° West 220 253 24,000  Level Washington Center
Sun 05:54:34 PM 37.1044 -77.3836 283° West 220 253 24,000  Level Washington Center
Sun 05:55:34 PM 37.1178 -77.4594 282° West 220 253 24,000  Level Washington Center
Sun 05:56:35 PM 37.1314 -77.5328 283° West 220 253 24,000  Level Washington Center
Sun 05:57:35 PM 37.1447 -77.6111 282° West 220 253 24,000  Level Washington Center
Sun 05:58:33 PM 37.1581 -77.6869 282° West 220 253 24,000  Level Washington Center
Sun 05:59:33 PM 37.1714 -77.7606 283° West 220 253 24,000  Level Washington Center
Sun 06:00:34 PM 37.1886 -77.8364 286° West 220 253 24,000 149 Level Washington Center
Sun 06:01:34 PM 37.2103 -77.9050 292° West 220 253 24,300 347 Climbing Washington Center
Sun 06:02:35 PM 37.2339 -77.9761 293° West 220 253 24,700 454 Climbing Washington Center
Sun 06:03:33 PM 37.2556 -78.0419 292° West 215 247 25,200 458 Climbing Washington Center
Sun 06:04:33 PM 37.2750 -78.1078 290° West 215 247 25,600 347 Climbing Washington Center
Sun 06:05:34 PM 37.2986 -78.1767 293° West 215 247 25,900 198 Climbing Washington Center
Sun 06:06:34 PM 37.3181 -78.2400 291° West 215 247 26,000 50 Climbing Washington Center
Sun 06:07:33 PM 37.3394 -78.3111 291° West 215 247 26,000  Level Washington Center
Sun 06:08:34 PM 37.3628 -78.3800 293° West 215 247 26,000  Level Washington Center
Sun 06:09:35 PM 37.3861 -78.4539 292° West 215 247 26,000  Level Washington Center
Sun 06:10:33 PM 37.4092 -78.5358 290° West 220 253 26,000  Level Washington Center
Sun 06:11:35 PM 37.4344 -78.6128 292° West 225 259 26,000  Level Washington Center
Sun 06:12:35 PM 37.4556 -78.6867 290° West 230 265 26,000  Level Washington Center
Sun 06:13:33 PM 37.4786 -78.7583 292° West 230 265 26,000  Level Washington Center
Sun 06:14:35 PM 37.5017 -78.8381 290° West 230 265 26,000  Level Washington Center
Sun 06:15:34 PM 37.5228 -78.9017 293° West 230 265 26,000  Level Washington Center
Sun 06:16:35 PM 37.5458 -78.9761 291° West 230 265 26,000  Level Washington Center
Sun 06:17:33 PM 37.5686 -79.0503 291° West 230 265 26,000  Level Washington Center
Sun 06:18:35 PM 37.5914 -79.1275 290° West 230 265 26,000  Level Washington Center
Sun 06:19:33 PM 37.6139 -79.2097 289° West 230 265 26,000  Level Washington Center
Sun 06:20:33 PM 37.6367 -79.2842 291° West 230 265 26,000  Level Washington Center
Sun 06:21:34 PM 37.6594 -79.3614 290° West 230 265 26,000  Level Washington Center
Sun 06:22:35 PM 37.6819 -79.4386 290° West 230 265 26,000  Level Washington Center
Sun 06:23:35 PM 37.7067 -79.5161 292° West 230 265 26,000  Level Washington Center
Sun 06:24:34 PM 37.7292 -79.5881 292° West 235 270 26,000  Level Washington Center
Sun 06:25:34 PM 37.7517 -79.6656 290° West 235 270 26,000  Level Washington Center
Sun 06:26:35 PM 37.7778 -79.7536 291° West 235 270 26,000  Level Washington Center
Sun 06:27:33 PM 37.7981 -79.8283 289° West 235 270 26,000  Level Washington Center
Sun 06:28:33 PM 37.8225 -79.9086 291° West 235 270 26,000  Level Washington Center
Sun 06:29:35 PM 37.8444 -79.9861 290° West 235 270 26,000  Level Washington Center
Sun 06:30:33 PM 37.8667 -80.0636 290° West 235 270 26,000  Level Washington Center
Sun 06:31:33 PM 37.8892 -80.1361 291° West 235 270 26,000  Level Washington Center
Sun 06:33:33 PM 37.9325 -80.2858 290° West 239 275 26,000  Level Indianapolis Center
Sun 06:34:34 PM 37.9594 -80.3800 290° West 243 280 26,000  Level Indianapolis Center
Sun 06:35:36 PM 37.9811 -80.4561 290° West 238 274 26,000  Level Indianapolis Center
Sun 06:36:38 PM 38.0047 -80.5375 290° West 242 278 26,000  Level Indianapolis Center
Sun 06:37:40 PM 38.0281 -80.6175 290° West 241 277 26,000  Level Indianapolis Center
Sun 06:38:42 PM 38.0514 -80.6994 290° West 244 281 26,000  Level Indianapolis Center
Sun 06:39:43 PM 38.0742 -80.7803 290° West 243 280 26,000  Level Indianapolis Center
Sun 06:40:45 PM 38.0969 -80.8594 290° West 240 276 26,000  Level Indianapolis Center
Sun 06:41:47 PM 38.1200 -80.9397 290° West 240 276 26,000  Level Indianapolis Center
Sun 06:42:49 PM 38.1467 -81.0367 289° West 241 277 26,000  Level Indianapolis Center
Sun 06:43:51 PM 38.1697 -81.1172 290° West 243 280 26,000  Level Indianapolis Center
Sun 06:44:53 PM 38.1917 -81.1975 289° West 240 276 26,000  Level Indianapolis Center
Sun 06:45:54 PM 38.2139 -81.2778 289° West 240 276 26,000  Level Indianapolis Center
Sun 06:46:56 PM 38.2378 -81.3592 291° West 242 278 26,000  Level Indianapolis Center
Sun 06:47:58 PM 38.2597 -81.4406 289° West 242 278 26,000  Level Indianapolis Center
Sun 06:49:00 PM 38.2814 -81.5219 289° West 241 277 26,000  Level Indianapolis Center
Sun 06:50:02 PM 38.3047 -81.6033 290° West 243 280 26,000  Level Indianapolis Center
Sun 06:51:04 PM 38.3272 -81.6844 289° West 241 277 26,000  Level Indianapolis Center
Sun 06:52:06 PM 38.3494 -81.7667 289° West 243 280 26,000  Level Indianapolis Center
Sun 06:53:07 PM 38.3739 -81.8669 287° West 245 282 26,000  Level Indianapolis Center
Sun 06:54:09 PM 38.3947 -81.9500 288° West 245 282 26,000 -194 Level Indianapolis Center
Sun 06:55:11 PM 38.4156 -82.0339 288° West 245 282 25,600 -435 Descending Indianapolis Center
Sun 06:56:13 PM 38.4369 -82.1219 287° West 255 293 25,100 -439 Descending Indianapolis Center
Sun 06:57:14 PM 38.4592 -82.2092 288° West 257 296 24,700 -488 Descending Indianapolis Center
Sun 06:58:16 PM 38.4811 -82.2972 288° West 258 297 24,100 -336 Descending Indianapolis Center
Sun 06:59:19 PM 38.5014 -82.3858 286° West 260 299 24,000 -48 Descending Indianapolis Center
Sun 07:00:21 PM 38.5228 -82.4683 288° West 248 285 24,000  Level Indianapolis Center
Sun 07:01:23 PM 38.5442 -82.5600 287° West 245 282 24,000  Level Indianapolis Center
Sun 07:02:24 PM 38.5639 -82.6408 287° West 242 278 24,000  Level Indianapolis Center
Sun 07:03:26 PM 38.5858 -82.7358 286° West 238 274 24,000  Level Indianapolis Center
Sun 07:04:28 PM 38.6058 -82.8158 288° West 236 272 24,000  Level Indianapolis Center
Sun 07:05:30 PM 38.6244 -82.8978 286° West 238 274 24,000 -293 Level Indianapolis Center
Sun 07:06:31 PM 38.6450 -82.9794 288° West 241 277 23,400 -829 Descending Indianapolis Center
Sun 07:07:33 PM 38.6706 -83.0622 292° West 255 293 22,300 -1,065 Descending Indianapolis Center
Sun 07:08:35 PM 38.7006 -83.1500 294° West 266 306 21,200 -1,366 Descending Indianapolis Center
Sun 07:09:36 PM 38.7306 -83.2456 292° West 269 310 19,500 -1,463 Descending Indianapolis Center
Sun 07:10:38 PM 38.7603 -83.3358 293° West 274 315 18,200 -1,645 Descending Indianapolis Center
Sun 07:11:40 PM 38.7928 -83.4372 292° West 272 313 16,100 -1,805 Descending Indianapolis Center
Sun 07:12:41 PM 38.8175 -83.5161 292° West 275 316 14,500 -1,854 Descending Indianapolis Center
Sun 07:13:43 PM 38.8525 -83.6256 292° West 276 318 12,300 -1,887 Descending Indianapolis Center
Sun 07:14:45 PM 38.8817 -83.7131 293° West 268 308 10,600 -1,659 Descending Indianapolis Center
Sun 07:15:46 PM 38.9078 -83.7958 292° West 254 292 8,900 -1,756 Descending Indianapolis Center
Sun 07:16:48 PM 38.9342 -83.8794 292° West 253 291 7,000 -1,500 Descending Indianapolis Center
Sun 07:17:50 PM 38.9619 -83.9667 292° West 259 298 5,800 -878 Descending Indianapolis Center
Sun 07:18:51 PM 38.9881 -84.0539 291° West 261 300 5,200 -585 Descending Indianapolis Center
Sun 07:19:53 PM 39.0006 -84.1469 280° West 263 303 4,600 -581 Descending Indianapolis Center
Sun 07:20:55 PM 39.0142 -84.2317 282° West 256 295 4,000 -683 Descending Indianapolis Center
Sun 07:21:56 PM 39.0156 -84.3333 271° West 246 283 3,200 -804 Descending Indianapolis Center
Sun 07:24:24 PM 39.0667 -84.4333 303° West 122 140 1,200 -811 Descending Cincinnati TRACON
Sun 07:26:00 PM 39.1000 -84.4167 21° North  Level FlightAware Approximate

Login

Don't have an account? Register now (free) for customized features, flight alerts, and more!